Aérodrome :
LOGIN :

S'inscrire | Disclaimer

   EN    FR    IT 

 










Légende :    VFR   VFR Marginal   IFR   IFR Intensif   IFR Très Intensif
Visi : 
Plafond : 
>= 8 km
>= 3000ft
5 à 8 km
1000 à 3000 ft
1500m à 5 km
500 à 1000 ft
800 à 1500m
200 à 500 ft
< 800m
< 200 ft
Symboles :   Orages  Brouillard  Fortes neiges  Fortes précipitations  Vent > 20 kt
SIGMETs :   Divers  Orages  Givrage  Turbulence  Onde Orograph.  Cendres Volcan.






- Altitude de l'aérodrome : 1197 ft
- Code IATA : SPM


ETAD - Spangdahlem Ab

DERNIER METAR :
  • 150356Z AUTO 02004KT 9999 CLR M02/M03 A3033 RMK AO2 SLP279 T10161027 $

METARs EXPIRÉS :
  • 150256Z AUTO 00000KT 9999 CLR M02/M03 A3033 RMK AO2 SLP279 T10241030 55002 $
  • 150156Z AUTO 00000KT 9999 CLR M01/M02 A3033 RMK AO2 SLP277 T10131024 $

TAF TAF ETAD
Valide du 15 à 04h jusqu'au 16 à 10h UTC


150400Z 1504/1610 VRB06KT 9999 FEW010 QNH3033INS
BECMG 1508/1509 05010KT 9999 FEW020 QNH3030INS
BECMG 1515/1516 03010G20KT 9000 -SHRA SCT030 BKN050 610502 QNH3030INS
BECMG 1519/1520 03007KT 9999 NSW SCT050 QNH3027INS
TEMPO 1602/1609 OVC020 620206
BECMG 1609/1610 05010G15KT 9999 BKN020 620206 QNH3028INS TX08/1512Z TNM02/1505Z



MET'MAP, la Météo Aéronautique d'un coup d'oeil ! - Copyright ORBIFLY Décembre 2007 - Disclaimer

ORBIFLY MET'MAP TEAM :

Programmation & Développement : Alexandra Zaïnal
Sur une idée originale de : Baudouin d'Aumeries
Assistance à la programmation : Marc-Olivier Méhu
Soutien technique & logistique : Manuel Goepfert

Contact : metmap@orbifly.com




SOURCES & CREDITS :

   NOAA